createdAt,value
2023-01-07T00:01:36.001Z,0.20
2023-01-07T00:04:03.645Z,0.10
2023-01-07T00:06:34.406Z,0.20
2023-01-07T00:09:01.216Z,0.20
2023-01-07T00:11:37.391Z,0.30
2023-01-07T00:14:04.765Z,1.10
2023-01-07T00:16:32.200Z,0.22
2023-01-07T00:19:01.070Z,0.70
2023-01-07T00:21:27.987Z,1.23
2023-01-07T00:23:59.665Z,0.68
2023-01-07T00:26:26.885Z,0.50
2023-01-07T00:28:53.684Z,0.60
2023-01-07T00:31:27.457Z,0.70
2023-01-07T00:33:54.042Z,0.75
2023-01-07T00:36:24.434Z,0.73
2023-01-07T00:38:55.022Z,0.77
2023-01-07T00:41:21.874Z,0.65
2023-01-07T00:43:48.182Z,0.60
2023-01-07T00:46:15.515Z,0.85
2023-01-07T00:48:43.352Z,0.70
2023-01-07T00:51:10.588Z,0.70
2023-01-07T00:53:36.944Z,0.57
2023-01-07T00:56:03.338Z,1.77
2023-01-07T00:58:29.694Z,0.90
2023-01-07T01:00:56.813Z,0.73
2023-01-07T01:03:23.389Z,1.30
2023-01-07T01:05:49.826Z,1.33
2023-01-07T01:08:17.941Z,0.73
2023-01-07T01:10:47.430Z,0.60
2023-01-07T01:13:18.021Z,0.60
2023-01-07T01:15:45.482Z,0.50
2023-01-07T01:18:12.251Z,0.68
2023-01-07T01:20:38.810Z,1.02
2023-01-07T01:23:05.273Z,0.70
2023-01-07T01:25:31.794Z,1.02
2023-01-07T01:27:58.196Z,0.57
2023-01-07T01:30:24.896Z,1.65
2023-01-07T01:32:51.290Z,0.65
2023-01-07T01:35:17.727Z,0.90
2023-01-07T01:37:44.169Z,1.40
2023-01-07T01:40:11.213Z,0.73
2023-01-07T01:42:37.651Z,0.77
2023-01-07T01:45:04.525Z,0.57
2023-01-07T01:47:45.224Z,0.47
2023-01-07T01:50:26.782Z,1.80
2023-01-07T01:52:56.647Z,0.80
2023-01-07T01:55:25.624Z,0.55
2023-01-07T01:57:53.663Z,1.30
2023-01-07T02:00:20.047Z,0.80
2023-01-07T02:02:47.930Z,1.30
2023-01-07T02:05:14.853Z,1.20
2023-01-07T02:07:41.131Z,0.80
2023-01-07T02:10:15.479Z,0.80
2023-01-07T02:12:58.930Z,0.75
2023-01-07T02:15:29.910Z,1.88
2023-01-07T02:17:59.257Z,0.70
2023-01-07T02:20:25.587Z,1.95
2023-01-07T02:22:51.878Z,1.38
2023-01-07T02:25:26.298Z,0.93
2023-01-07T02:28:01.331Z,1.13
2023-01-07T02:30:33.477Z,2.38
2023-01-07T02:33:10.081Z,1.20
2023-01-07T02:35:43.727Z,0.90
2023-01-07T02:38:22.087Z,1.38
2023-01-07T02:40:55.342Z,0.75
2023-01-07T02:43:21.637Z,0.70
2023-01-07T02:45:50.778Z,1.00
2023-01-07T02:48:19.209Z,0.93
2023-01-07T02:50:45.517Z,1.80
2023-01-07T02:53:15.024Z,1.77
2023-01-07T02:55:54.208Z,0.95
2023-01-07T02:58:33.066Z,1.30
2023-01-07T03:01:05.661Z,1.52
2023-01-07T03:03:44.602Z,1.20
2023-01-07T03:06:37.252Z,1.05
2023-01-07T03:09:21.252Z,0.70
2023-01-07T03:11:52.770Z,1.25
2023-01-07T03:14:20.437Z,1.20
2023-01-07T03:17:00.364Z,1.65
2023-01-07T03:19:31.480Z,3.33
2023-01-07T03:21:59.139Z,1.27
2023-01-07T03:24:26.129Z,1.25
2023-01-07T03:26:54.033Z,1.10
2023-01-07T03:29:20.807Z,0.90
2023-01-07T03:31:55.110Z,2.25
2023-01-07T03:34:22.604Z,0.80
2023-01-07T03:36:53.708Z,0.95
2023-01-07T03:39:22.495Z,0.90
2023-01-07T03:42:10.343Z,1.48
2023-01-07T03:44:36.997Z,1.20
2023-01-07T03:47:04.146Z,1.20
2023-01-07T03:49:30.780Z,1.85
2023-01-07T03:51:57.220Z,1.58
2023-01-07T03:54:23.947Z,2.15
2023-01-07T03:56:50.282Z,1.23
2023-01-07T03:59:16.655Z,1.30
2023-01-07T04:01:43.173Z,3.47
2023-01-07T04:04:09.605Z,1.30
2023-01-07T04:06:37.283Z,1.23
2023-01-07T04:09:03.807Z,0.90
2023-01-07T04:11:30.151Z,1.55
2023-01-07T04:14:00.653Z,1.15
2023-01-07T04:16:27.326Z,1.30
2023-01-07T04:18:53.658Z,2.40
2023-01-07T04:21:20.025Z,1.35
2023-01-07T04:23:46.319Z,2.42
2023-01-07T04:26:12.596Z,2.15
2023-01-07T04:28:39.038Z,1.67
2023-01-07T04:31:05.534Z,1.30
2023-01-07T04:33:31.934Z,1.30
2023-01-07T04:35:58.277Z,1.50
2023-01-07T04:38:24.662Z,1.92
2023-01-07T04:40:51.003Z,1.35
2023-01-07T04:43:17.423Z,1.70
2023-01-07T04:45:43.717Z,1.30
2023-01-07T04:48:10.125Z,1.73
2023-01-07T04:50:36.514Z,1.08
2023-01-07T04:53:02.823Z,1.00
2023-01-07T04:55:29.171Z,0.80
2023-01-07T04:57:55.610Z,1.45
2023-01-07T05:00:21.934Z,1.95
2023-01-07T05:02:48.320Z,1.17
2023-01-07T05:05:14.797Z,2.67
2023-01-07T05:07:41.095Z,2.88
2023-01-07T05:10:07.737Z,1.73
2023-01-07T05:12:35.241Z,1.92
2023-01-07T05:15:02.148Z,1.48
2023-01-07T05:17:28.627Z,1.23
2023-01-07T05:19:55.064Z,1.35
2023-01-07T05:22:21.385Z,1.88
2023-01-07T05:24:47.677Z,1.83
2023-01-07T05:27:15.372Z,1.70
2023-01-07T05:29:41.688Z,1.75
2023-01-07T05:32:08.025Z,1.73
2023-01-07T05:34:34.336Z,1.45
2023-01-07T05:37:00.711Z,1.85
2023-01-07T05:39:27.145Z,2.53
2023-01-07T05:41:53.486Z,2.10
2023-01-07T05:44:19.817Z,1.50
2023-01-07T05:46:46.225Z,1.50
2023-01-07T05:49:12.604Z,1.30
2023-01-07T05:51:38.989Z,1.75
2023-01-07T05:54:05.396Z,2.00
2023-01-07T05:56:31.814Z,2.10
2023-01-07T05:58:58.107Z,2.30
2023-01-07T06:01:24.536Z,1.90
2023-01-07T06:03:50.920Z,2.15
2023-01-07T06:06:17.718Z,2.13
2023-01-07T06:08:44.437Z,1.90
2023-01-07T06:11:10.866Z,1.40
2023-01-07T06:13:37.198Z,1.25
2023-01-07T06:16:04.510Z,1.70
2023-01-07T06:18:30.937Z,2.20
2023-01-07T06:20:57.251Z,1.58
2023-01-07T06:23:23.871Z,1.40
2023-01-07T06:25:50.292Z,1.60
2023-01-07T06:28:16.593Z,1.30
2023-01-07T06:30:46.487Z,1.23
2023-01-07T06:33:13.178Z,1.13
2023-01-07T06:35:39.607Z,1.17
2023-01-07T06:38:06.127Z,1.15
2023-01-07T06:40:32.483Z,1.23
2023-01-07T06:42:58.881Z,1.40
2023-01-07T06:45:25.417Z,1.63
2023-01-07T06:47:53.227Z,1.70
2023-01-07T06:50:19.566Z,1.02
2023-01-07T06:52:45.934Z,1.30
2023-01-07T06:55:12.434Z,1.73
2023-01-07T06:57:38.833Z,1.20
2023-01-07T07:00:05.411Z,1.25
2023-01-07T07:02:31.890Z,1.30
2023-01-07T07:04:58.415Z,1.50
2023-01-07T07:07:25.562Z,2.35
2023-01-07T07:09:51.935Z,2.13
2023-01-07T07:12:19.457Z,3.60
2023-01-07T07:14:45.858Z,2.45
2023-01-07T07:17:12.302Z,3.58
2023-01-07T07:19:38.738Z,2.95
2023-01-07T07:22:05.116Z,2.53
2023-01-07T07:24:31.448Z,5.60
2023-01-07T07:26:57.976Z,4.63
2023-01-07T07:29:24.458Z,3.78
2023-01-07T07:31:50.794Z,3.33
2023-01-07T07:34:17.140Z,2.90
2023-01-07T07:36:43.479Z,3.42
2023-01-07T07:39:11.045Z,2.63
2023-01-07T07:41:37.425Z,4.03
2023-01-07T07:44:04.006Z,2.85
2023-01-07T07:46:30.889Z,2.97
2023-01-07T07:48:57.265Z,3.78
2023-01-07T07:51:23.640Z,3.65
2023-01-07T07:53:50.093Z,3.40
2023-01-07T07:56:16.400Z,2.88
2023-01-07T07:58:45.603Z,3.35
2023-01-07T08:01:11.973Z,2.33
2023-01-07T08:03:38.480Z,2.17
2023-01-07T08:06:05.270Z,3.03
2023-01-07T08:08:31.716Z,2.50
2023-01-07T08:10:58.085Z,2.97
2023-01-07T08:13:25.781Z,2.45
2023-01-07T08:15:52.147Z,1.58
2023-01-07T08:18:19.791Z,3.00
2023-01-07T08:20:46.561Z,2.05
2023-01-07T08:23:12.895Z,4.65
2023-01-07T08:25:39.389Z,1.63
2023-01-07T08:28:05.785Z,1.83
2023-01-07T08:30:32.476Z,1.60
2023-01-07T08:32:59.189Z,2.55
2023-01-07T08:35:25.617Z,1.88
2023-01-07T08:37:51.993Z,1.83
2023-01-07T08:40:18.383Z,1.40
2023-01-07T08:42:44.742Z,3.80
2023-01-07T08:45:11.456Z,1.65
2023-01-07T08:47:38.432Z,2.40
2023-01-07T08:50:04.970Z,2.70
2023-01-07T08:52:31.248Z,2.50
2023-01-07T08:54:57.626Z,2.72
2023-01-07T08:57:24.070Z,3.00
2023-01-07T08:59:50.501Z,2.28
2023-01-07T09:02:18.004Z,2.80
2023-01-07T09:04:44.628Z,3.80
2023-01-07T09:07:11.041Z,2.33
2023-01-07T09:09:37.681Z,1.75
2023-01-07T09:12:04.999Z,1.15
2023-01-07T09:14:31.647Z,1.63
2023-01-07T09:16:58.215Z,1.73
2023-01-07T09:19:24.706Z,2.10
2023-01-07T09:21:53.921Z,1.20
2023-01-07T09:24:20.209Z,2.17
2023-01-07T09:26:46.630Z,3.40
2023-01-07T09:29:12.958Z,2.60
2023-01-07T09:31:39.407Z,1.35
2023-01-07T09:34:05.800Z,2.00
2023-01-07T09:36:33.582Z,2.45
2023-01-07T09:39:00.344Z,3.60
2023-01-07T09:41:45.511Z,2.20
2023-01-07T09:44:17.875Z,1.60
2023-01-07T09:46:44.789Z,2.20
2023-01-07T09:49:18.228Z,3.30
2023-01-07T09:51:59.669Z,3.55
2023-01-07T09:54:29.386Z,4.80
2023-01-07T09:56:55.766Z,2.88
2023-01-07T09:59:22.188Z,2.90
2023-01-07T10:02:07.613Z,1.63
2023-01-07T10:04:38.200Z,2.17
2023-01-07T10:07:20.016Z,4.72
2023-01-07T10:10:05.284Z,1.02
2023-01-07T10:12:50.033Z,1.10
2023-01-07T10:15:35.105Z,1.92
2023-01-07T10:18:12.479Z,1.13
2023-01-07T10:20:44.809Z,1.48
2023-01-07T10:23:12.675Z,0.80
2023-01-07T10:25:49.517Z,1.20
2023-01-07T10:28:25.338Z,0.70
2023-01-07T10:30:54.707Z,0.70
2023-01-07T10:33:28.450Z,0.88
2023-01-07T10:36:07.115Z,1.55
2023-01-07T10:38:35.149Z,1.25
2023-01-07T10:41:06.466Z,0.55
2023-01-07T10:43:51.689Z,0.65
2023-01-07T10:46:18.058Z,1.30
2023-01-07T10:48:53.298Z,0.73
2023-01-07T10:51:30.189Z,1.73
2023-01-07T10:54:11.638Z,1.50
2023-01-07T10:56:40.080Z,1.17
2023-01-07T10:59:09.162Z,2.05
2023-01-07T11:01:37.312Z,1.23
2023-01-07T11:04:04.317Z,1.30
2023-01-07T11:06:44.045Z,1.20
2023-01-07T11:09:33.405Z,1.38
2023-01-07T11:12:01.938Z,0.85
2023-01-07T11:14:30.670Z,1.27
2023-01-07T11:17:10.468Z,1.30
2023-01-07T11:19:41.785Z,1.20
2023-01-07T11:22:28.039Z,1.35
2023-01-07T11:24:54.776Z,0.80
2023-01-07T11:27:22.234Z,1.13
2023-01-07T11:29:49.540Z,0.80
2023-01-07T11:32:33.233Z,0.80
2023-01-07T11:35:01.013Z,1.00
2023-01-07T11:37:35.420Z,0.57
2023-01-07T11:40:04.437Z,0.68
2023-01-07T11:42:39.994Z,1.00
2023-01-07T11:45:09.293Z,1.27
2023-01-07T11:47:37.153Z,1.10
2023-01-07T11:50:03.670Z,0.80
2023-01-07T11:52:30.154Z,0.98
2023-01-07T11:54:56.446Z,1.20
2023-01-07T11:57:24.278Z,0.60
2023-01-07T12:00:09.335Z,1.15
2023-01-07T12:02:35.815Z,0.70
2023-01-07T12:05:17.338Z,1.35
2023-01-07T12:07:48.306Z,0.80
2023-01-07T12:10:31.877Z,0.98
2023-01-07T12:12:58.898Z,1.00
2023-01-07T12:15:30.630Z,1.55
2023-01-07T12:18:15.439Z,1.30
2023-01-07T12:20:59.876Z,0.95
2023-01-07T12:23:26.331Z,0.93
2023-01-07T12:26:12.468Z,0.52
2023-01-07T12:28:48.112Z,1.83
2023-01-07T12:31:21.123Z,0.75
2023-01-07T12:34:10.710Z,1.48
2023-01-07T12:36:50.312Z,1.02
2023-01-07T12:39:27.298Z,1.48
2023-01-07T12:41:58.080Z,1.48
2023-01-07T12:44:24.530Z,0.95
2023-01-07T12:47:30.505Z,1.40
2023-01-07T12:49:54.646Z,1.17
2023-01-07T12:52:34.833Z,1.23
2023-01-07T12:55:10.378Z,2.20
2023-01-07T12:57:38.825Z,2.30
2023-01-07T13:00:13.718Z,1.80
2023-01-07T13:02:54.391Z,2.25
2023-01-07T13:05:23.627Z,2.90
2023-01-07T13:07:50.170Z,3.10
2023-01-07T13:10:19.389Z,2.20
2023-01-07T13:12:47.656Z,2.90
2023-01-07T13:15:23.648Z,3.33
2023-01-07T13:17:50.874Z,3.13
2023-01-07T13:20:19.425Z,5.18
2023-01-07T13:22:53.832Z,4.20
2023-01-07T13:25:35.775Z,4.70
2023-01-07T13:28:08.112Z,1.98
2023-01-07T13:30:46.227Z,1.80
2023-01-07T13:33:27.604Z,2.85
2023-01-07T13:36:06.177Z,1.85
2023-01-07T13:38:55.635Z,2.17
2023-01-07T13:41:33.964Z,2.05
2023-01-07T13:44:07.130Z,2.20
2023-01-07T13:46:35.258Z,2.25
2023-01-07T13:49:01.872Z,2.15
2023-01-07T13:51:32.865Z,3.33
2023-01-07T13:53:59.315Z,2.38
2023-01-07T13:56:25.898Z,2.33
2023-01-07T13:58:55.373Z,2.72
2023-01-07T14:01:25.347Z,2.47
2023-01-07T14:03:53.171Z,1.73
2023-01-07T14:06:22.416Z,2.45
2023-01-07T14:08:52.947Z,3.25
2023-01-07T14:11:20.697Z,2.42
2023-01-07T14:14:05.875Z,2.50
2023-01-07T14:16:37.192Z,4.05
2023-01-07T14:19:03.529Z,1.95
2023-01-07T14:21:30.012Z,3.08
2023-01-07T14:23:57.007Z,4.32
2023-01-07T14:26:26.480Z,2.42
2023-01-07T14:29:11.649Z,3.42
2023-01-07T14:31:38.118Z,2.85
2023-01-07T14:34:05.356Z,4.03
2023-01-07T14:37:00.878Z,2.88
2023-01-07T14:39:31.295Z,3.80
2023-01-07T14:42:16.806Z,3.38
2023-01-07T14:44:43.172Z,3.13
2023-01-07T14:47:13.220Z,3.05
2023-01-07T14:49:55.687Z,3.35
2023-01-07T14:52:48.797Z,4.18
2023-01-07T14:55:34.456Z,4.38
2023-01-07T14:58:03.563Z,3.45
2023-01-07T15:00:35.936Z,4.15
2023-01-07T15:03:11.766Z,3.42
2023-01-07T15:05:39.072Z,2.47
2023-01-07T15:08:25.829Z,3.95
2023-01-07T15:11:12.091Z,2.38
2023-01-07T15:14:01.977Z,2.35
2023-01-07T15:16:30.118Z,3.92
2023-01-07T15:18:56.576Z,4.13
2023-01-07T15:21:22.917Z,4.25
2023-01-07T15:24:06.502Z,5.10
2023-01-07T15:26:32.841Z,4.72
2023-01-07T15:29:05.202Z,3.85
2023-01-07T15:32:06.910Z,5.25
2023-01-07T15:34:33.438Z,2.92
2023-01-07T15:37:02.866Z,2.53
2023-01-07T15:39:31.286Z,2.60
2023-01-07T15:41:57.761Z,3.72
2023-01-07T15:44:33.742Z,2.80
2023-01-07T15:47:00.120Z,3.55
2023-01-07T15:49:27.989Z,3.42
2023-01-07T15:51:56.708Z,3.30
2023-01-07T15:54:26.327Z,1.80
2023-01-07T15:56:54.164Z,2.38
2023-01-07T15:59:46.905Z,2.47
2023-01-07T16:02:14.847Z,3.30
2023-01-07T16:04:43.708Z,2.63
2023-01-07T16:07:20.283Z,2.80
2023-01-07T16:09:46.660Z,4.30
2023-01-07T16:12:19.819Z,3.58
2023-01-07T16:14:46.314Z,5.10
2023-01-07T16:17:15.985Z,3.53
2023-01-07T16:19:42.375Z,3.15
2023-01-07T16:22:11.538Z,2.67
2023-01-07T16:24:37.959Z,2.67
2023-01-07T16:27:05.579Z,2.72
2023-01-07T16:29:35.937Z,4.05
2023-01-07T16:32:04.753Z,2.20
2023-01-07T16:34:31.092Z,2.22
2023-01-07T16:36:58.587Z,2.22
2023-01-07T16:39:30.288Z,2.83
2023-01-07T16:42:15.879Z,3.00
2023-01-07T16:44:42.378Z,2.90
2023-01-07T16:47:14.602Z,5.00
2023-01-07T16:49:40.913Z,3.17
2023-01-07T16:52:11.665Z,2.97
2023-01-07T16:54:40.223Z,3.55
2023-01-07T16:57:12.580Z,4.07
2023-01-07T16:59:46.909Z,3.47
2023-01-07T17:02:48.996Z,3.75
2023-01-07T17:05:17.585Z,5.07
2023-01-07T17:07:46.583Z,3.75
2023-01-07T17:10:26.060Z,2.90
2023-01-07T17:12:56.980Z,4.70
2023-01-07T17:15:32.564Z,3.15
2023-01-07T17:18:08.226Z,2.88
2023-01-07T17:20:41.754Z,3.08
2023-01-07T17:23:26.512Z,4.82
2023-01-07T17:26:00.805Z,3.60
2023-01-07T17:28:28.886Z,6.97
2023-01-07T17:30:55.322Z,5.72
2023-01-07T17:33:22.620Z,7.43
2023-01-07T17:35:50.745Z,5.03
2023-01-07T17:38:17.605Z,3.45
2023-01-07T17:40:44.464Z,2.90
2023-01-07T17:43:33.724Z,5.70
2023-01-07T17:46:01.244Z,2.33
2023-01-07T17:48:28.028Z,3.03
2023-01-07T17:50:57.042Z,2.65
2023-01-07T17:53:25.009Z,3.50
2023-01-07T17:55:51.370Z,4.97
2023-01-07T17:58:28.760Z,3.00
2023-01-07T18:00:56.188Z,2.22
2023-01-07T18:03:23.325Z,5.28
2023-01-07T18:05:49.667Z,4.32
2023-01-07T18:08:16.073Z,6.63
2023-01-07T18:11:01.626Z,4.75
2023-01-07T18:13:29.126Z,7.32
2023-01-07T18:15:57.342Z,5.65
2023-01-07T18:18:24.239Z,5.22
2023-01-07T18:20:50.519Z,6.72
2023-01-07T18:23:17.118Z,8.77
2023-01-07T18:25:44.026Z,5.78
2023-01-07T18:28:10.785Z,3.15
2023-01-07T18:30:38.916Z,3.05
2023-01-07T18:33:05.868Z,2.55
2023-01-07T18:35:32.175Z,2.97
2023-01-07T18:37:58.544Z,3.13
2023-01-07T18:40:24.909Z,2.60
2023-01-07T18:42:52.822Z,2.10
2023-01-07T18:45:19.271Z,1.55
2023-01-07T18:47:46.111Z,2.67
2023-01-07T18:50:13.391Z,2.60
2023-01-07T18:52:40.381Z,3.08
2023-01-07T18:55:07.567Z,5.13
2023-01-07T18:57:34.007Z,2.72
2023-01-07T19:00:00.490Z,3.45
2023-01-07T19:02:27.061Z,3.83
2023-01-07T19:04:53.484Z,4.05
2023-01-07T19:07:19.992Z,3.30
2023-01-07T19:09:46.394Z,3.90
2023-01-07T19:12:13.270Z,3.28
2023-01-07T19:14:40.261Z,4.60
2023-01-07T19:17:07.713Z,5.05
2023-01-07T19:19:47.441Z,3.72
2023-01-07T19:22:16.429Z,2.80
2023-01-07T19:24:43.067Z,3.47
2023-01-07T19:27:09.385Z,3.40
2023-01-07T19:29:35.739Z,3.78
2023-01-07T19:32:02.166Z,3.00
2023-01-07T19:34:28.625Z,2.92
2023-01-07T19:36:55.151Z,3.47
2023-01-07T19:39:22.185Z,4.25
2023-01-07T19:41:48.922Z,2.78
2023-01-07T19:44:15.321Z,4.55
2023-01-07T19:46:42.523Z,4.75
2023-01-07T19:49:10.094Z,3.35
2023-01-07T19:51:38.246Z,4.88
2023-01-07T19:54:04.790Z,4.57
2023-01-07T19:56:31.598Z,4.90
2023-01-07T19:58:58.500Z,6.97
2023-01-07T20:01:26.677Z,5.63
2023-01-07T20:03:54.148Z,5.13
2023-01-07T20:06:22.324Z,3.42
2023-01-07T20:08:48.617Z,2.85
2023-01-07T20:11:15.532Z,3.08
2023-01-07T20:13:44.252Z,3.72
2023-01-07T20:16:15.700Z,4.68
2023-01-07T20:18:49.192Z,4.65
2023-01-07T20:21:16.620Z,4.65
2023-01-07T20:23:43.463Z,4.75
2023-01-07T20:26:11.307Z,3.72
2023-01-07T20:28:37.650Z,3.22
2023-01-07T20:31:08.112Z,4.00
2023-01-07T20:33:34.876Z,3.72
2023-01-07T20:36:01.664Z,3.33
2023-01-07T20:38:28.308Z,2.72
2023-01-07T20:40:54.685Z,2.47
2023-01-07T20:43:21.013Z,3.67
2023-01-07T20:45:47.398Z,2.72
2023-01-07T20:48:15.537Z,1.67
2023-01-07T20:50:42.785Z,2.30
2023-01-07T20:53:09.778Z,2.08
2023-01-07T20:55:36.574Z,2.17
2023-01-07T20:58:02.992Z,4.15
2023-01-07T21:00:29.758Z,3.40
2023-01-07T21:02:56.475Z,3.50
2023-01-07T21:05:24.416Z,3.53
2023-01-07T21:07:51.014Z,2.50
2023-01-07T21:10:18.385Z,3.58
2023-01-07T21:12:45.282Z,4.35
2023-01-07T21:15:12.977Z,5.88
2023-01-07T21:17:42.425Z,4.15
2023-01-07T21:20:10.814Z,5.07
2023-01-07T21:22:38.759Z,3.63
2023-01-07T21:25:06.080Z,3.70
2023-01-07T21:27:32.455Z,3.63
2023-01-07T21:29:58.873Z,5.10
2023-01-07T21:32:25.268Z,3.65
2023-01-07T21:34:51.655Z,4.55
2023-01-07T21:37:18.011Z,3.53
2023-01-07T21:39:44.383Z,5.28
2023-01-07T21:42:10.723Z,7.30
2023-01-07T21:44:37.653Z,5.40
2023-01-07T21:47:04.071Z,3.72
2023-01-07T21:49:32.023Z,3.92
2023-01-07T21:51:58.504Z,4.72
2023-01-07T21:54:24.921Z,3.80
2023-01-07T21:56:51.272Z,4.82
2023-01-07T21:59:17.667Z,3.92
2023-01-07T22:01:44.331Z,6.35
2023-01-07T22:04:10.890Z,3.58
2023-01-07T22:06:37.427Z,3.22
2023-01-07T22:09:08.575Z,3.95
2023-01-07T22:11:35.831Z,3.37
2023-01-07T22:14:02.201Z,3.42
2023-01-07T22:16:29.572Z,4.20
2023-01-07T22:18:57.030Z,5.25
2023-01-07T22:21:23.597Z,3.35
2023-01-07T22:23:50.080Z,4.53
2023-01-07T22:26:17.627Z,3.80
2023-01-07T22:28:45.027Z,3.95
2023-01-07T22:31:11.623Z,3.45
2023-01-07T22:33:38.061Z,4.05
2023-01-07T22:36:04.655Z,4.88
2023-01-07T22:38:31.340Z,3.63
2023-01-07T22:40:57.684Z,3.80
2023-01-07T22:43:25.121Z,4.75
2023-01-07T22:45:55.059Z,4.28
2023-01-07T22:48:24.056Z,3.05
2023-01-07T22:50:54.562Z,2.70
2023-01-07T22:53:21.557Z,4.22
2023-01-07T22:55:49.209Z,4.57
2023-01-07T22:58:16.928Z,4.88
2023-01-07T23:00:46.420Z,4.50
2023-01-07T23:03:12.903Z,3.78
2023-01-07T23:05:39.781Z,5.35
2023-01-07T23:08:06.370Z,3.60
2023-01-07T23:10:32.730Z,3.60
2023-01-07T23:12:59.761Z,4.50
2023-01-07T23:15:26.198Z,4.07
2023-01-07T23:17:52.495Z,6.47
2023-01-07T23:20:18.819Z,6.57
2023-01-07T23:22:45.337Z,3.95
2023-01-07T23:25:11.677Z,3.83
2023-01-07T23:27:39.437Z,3.63
2023-01-07T23:30:06.232Z,4.47
2023-01-07T23:32:32.647Z,4.40
2023-01-07T23:34:59.040Z,5.65
2023-01-07T23:37:25.366Z,4.63
2023-01-07T23:39:51.713Z,4.97
2023-01-07T23:42:18.169Z,5.07
2023-01-07T23:44:44.543Z,5.03
2023-01-07T23:47:10.914Z,5.75
2023-01-07T23:49:37.888Z,5.57
2023-01-07T23:52:04.218Z,3.75
2023-01-07T23:54:30.649Z,6.85
2023-01-07T23:56:57.055Z,3.78
2023-01-07T23:59:23.619Z,4.47
